createdAt,value
2019-03-26T00:00:24.960Z,96661.13
2019-03-26T00:02:51.084Z,96660.09
2019-03-26T00:05:17.309Z,96668.37
2019-03-26T00:07:43.467Z,96666.03
2019-03-26T00:10:09.812Z,96672.38
2019-03-26T00:12:35.943Z,96668.37
2019-03-26T00:15:03.162Z,96677.67
2019-03-26T00:17:29.440Z,96673.22
2019-03-26T00:19:55.685Z,96684.02
2019-03-26T00:22:21.937Z,96682.34
2019-03-26T00:24:48.182Z,96682.34
2019-03-26T00:27:14.531Z,96689.23
2019-03-26T00:29:40.777Z,96690.98
2019-03-26T00:32:06.971Z,96688.50
2019-03-26T00:34:33.378Z,96684.95
2019-03-26T00:36:59.616Z,96684.59
2019-03-26T00:39:25.791Z,96681.40
2019-03-26T00:41:52.004Z,96684.01
2019-03-26T00:44:18.399Z,96686.83
2019-03-26T00:46:44.653Z,96689.80
2019-03-26T00:49:10.836Z,96690.44
2019-03-26T00:51:37.044Z,96702.08
2019-03-26T00:54:03.231Z,96708.59
2019-03-26T00:56:29.392Z,96711.02
2019-03-26T00:58:55.651Z,96708.51
2019-03-26T01:01:21.795Z,96704.90
2019-03-26T01:03:48.065Z,96715.33
2019-03-26T01:06:14.374Z,96721.94
2019-03-26T01:08:40.607Z,96732.64
2019-03-26T01:11:06.820Z,96726.48
2019-03-26T01:13:33.045Z,96734.13
2019-03-26T01:15:59.155Z,96732.38
2019-03-26T01:18:25.419Z,96737.68
2019-03-26T01:20:51.655Z,96734.98
2019-03-26T01:23:17.996Z,96731.83
2019-03-26T01:25:44.135Z,96736.19
2019-03-26T01:28:10.403Z,96736.65
2019-03-26T01:30:36.578Z,96741.41
2019-03-26T01:33:03.006Z,96737.50
2019-03-26T01:35:29.187Z,96739.92
2019-03-26T01:37:55.419Z,96738.80
2019-03-26T01:40:21.518Z,96723.55
2019-03-26T01:42:47.806Z,96736.59
2019-03-26T01:45:14.164Z,96736.95
2019-03-26T01:47:40.414Z,96734.34
2019-03-26T01:50:07.222Z,96742.53
2019-03-26T01:52:34.494Z,96750.57
2019-03-26T01:55:00.693Z,96757.64
2019-03-26T01:57:26.908Z,96753.45
2019-03-26T01:59:53.086Z,96752.23
2019-03-26T02:02:19.354Z,96743.75
2019-03-26T02:04:58.879Z,96752.15
2019-03-26T02:07:13.606Z,96757.16
2019-03-26T02:09:39.780Z,96751.84
2019-03-26T02:12:05.945Z,96756.34
2019-03-26T02:14:32.111Z,96757.06
2019-03-26T02:16:58.522Z,96761.91
2019-03-26T02:19:24.700Z,96757.15
2019-03-26T02:21:51.054Z,96761.25
2019-03-26T02:24:17.159Z,96768.16
2019-03-26T02:26:43.433Z,96771.77
2019-03-26T02:29:09.548Z,96773.92
2019-03-26T02:31:35.761Z,96766.86
2019-03-26T02:34:01.892Z,96768.53
2019-03-26T02:36:28.126Z,96772.26
2019-03-26T02:38:54.392Z,96768.25
2019-03-26T02:41:20.777Z,96772.08
2019-03-26T02:43:47.136Z,96777.75
2019-03-26T02:46:13.405Z,96773.66
2019-03-26T02:48:39.547Z,96774.41
2019-03-26T02:51:05.885Z,96780.48
2019-03-26T02:53:32.194Z,96787.82
2019-03-26T02:55:58.713Z,96783.81
2019-03-26T02:58:24.911Z,96789.12
2019-03-26T03:00:51.178Z,96792.31
2019-03-26T03:03:17.582Z,96800.14
2019-03-26T03:05:43.790Z,96801.44
2019-03-26T03:08:10.047Z,96806.66
2019-03-26T03:10:36.314Z,96801.35
2019-03-26T03:13:02.763Z,96800.50
2019-03-26T03:15:28.868Z,96799.20
2019-03-26T03:17:55.356Z,96801.72
2019-03-26T03:20:21.675Z,96797.44
2019-03-26T03:22:47.914Z,96805.63
2019-03-26T03:25:15.120Z,96796.95
2019-03-26T03:27:41.453Z,96802.75
2019-03-26T03:30:08.427Z,96804.41
2019-03-26T03:32:34.707Z,96797.53
2019-03-26T03:35:00.957Z,96801.45
2019-03-26T03:37:27.268Z,96804.72
2019-03-26T03:39:53.571Z,96806.21
2019-03-26T03:42:19.940Z,96816.92
2019-03-26T03:44:46.191Z,96816.09
2019-03-26T03:47:13.508Z,96810.58
2019-03-26T03:49:40.211Z,96813.19
2019-03-26T03:52:07.623Z,96808.45
2019-03-26T03:54:37.626Z,96811.97
2019-03-26T03:57:05.339Z,96806.21
2019-03-26T03:59:32.387Z,96803.33
2019-03-26T04:01:58.829Z,96801.45
2019-03-26T04:04:25.137Z,96812.82
2019-03-26T04:06:51.440Z,96811.25
2019-03-26T04:09:17.719Z,96818.31
2019-03-26T04:11:45.341Z,96823.44
2019-03-26T04:14:11.586Z,96824.66
2019-03-26T04:16:37.870Z,96819.53
2019-03-26T04:19:03.998Z,96816.06
2019-03-26T04:21:30.274Z,96818.31
2019-03-26T04:23:56.377Z,96820.47
2019-03-26T04:26:22.614Z,96815.52
2019-03-26T04:28:49.442Z,96827.72
2019-03-26T04:31:15.851Z,96825.50
2019-03-26T04:33:42.109Z,96829.87
2019-03-26T04:36:24.214Z,96827.72
2019-03-26T04:38:36.748Z,96826.81
2019-03-26T04:41:03.073Z,96842.47
2019-03-26T04:43:29.304Z,96838.16
2019-03-26T04:45:56.477Z,96836.85
2019-03-26T04:48:22.759Z,96840.41
2019-03-26T04:50:48.924Z,96835.64
2019-03-26T04:53:15.228Z,96838.16
2019-03-26T04:55:41.548Z,96834.64
2019-03-26T04:58:07.790Z,96836.85
2019-03-26T05:00:33.953Z,96833.88
2019-03-26T05:03:00.209Z,96829.60
2019-03-26T05:05:26.478Z,96834.81
2019-03-26T05:07:52.933Z,96831.27
2019-03-26T05:10:19.115Z,96835.55
2019-03-26T05:12:45.297Z,96841.89
2019-03-26T05:15:11.581Z,96836.13
2019-03-26T05:17:37.766Z,96842.20
2019-03-26T05:20:05.963Z,96838.37
2019-03-26T05:22:32.262Z,96841.26
2019-03-26T05:24:58.673Z,96843.78
2019-03-26T05:27:24.802Z,96839.86
2019-03-26T05:29:52.136Z,96841.92
2019-03-26T05:32:18.404Z,96850.97
2019-03-26T05:34:44.615Z,96849.75
2019-03-26T05:37:10.942Z,96854.03
2019-03-26T05:39:37.600Z,96853.67
2019-03-26T05:42:03.891Z,96861.86
2019-03-26T05:44:30.147Z,96859.44
2019-03-26T05:46:56.420Z,96856.47
2019-03-26T05:49:23.011Z,96854.03
2019-03-26T05:51:49.359Z,96857.50
2019-03-26T05:54:15.514Z,96851.24
2019-03-26T05:56:41.715Z,96852.55
2019-03-26T05:59:07.822Z,96857.31
2019-03-26T06:01:34.057Z,96859.07
2019-03-26T06:04:00.166Z,96854.80
2019-03-26T06:06:26.368Z,96859.07
2019-03-26T06:08:52.456Z,96862.44
2019-03-26T06:11:18.642Z,96864.96
2019-03-26T06:13:44.813Z,96869.70
2019-03-26T06:16:11.020Z,96872.12
2019-03-26T06:18:37.271Z,96871.95
2019-03-26T06:21:03.541Z,96875.41
2019-03-26T06:23:29.754Z,96878.87
2019-03-26T06:25:55.984Z,96879.98
2019-03-26T06:28:22.066Z,96882.51
2019-03-26T06:30:48.589Z,96879.80
2019-03-26T06:33:14.742Z,96889.31
2019-03-26T06:35:40.980Z,96887.06
2019-03-26T06:38:07.067Z,96889.40
2019-03-26T06:40:33.285Z,96887.91
2019-03-26T06:42:59.450Z,96884.48
2019-03-26T06:45:25.639Z,96885.39
2019-03-26T06:47:51.801Z,96884.30
2019-03-26T06:50:18.197Z,96889.23
2019-03-26T06:52:44.477Z,96884.29
2019-03-26T06:55:11.322Z,96888.10
2019-03-26T06:57:40.409Z,96887.92
2019-03-26T07:00:09.081Z,96886.44
2019-03-26T07:02:35.731Z,96891.20
2019-03-26T07:05:02.204Z,96892.20
2019-03-26T07:07:31.692Z,96894.55
2019-03-26T07:09:57.418Z,96891.37
2019-03-26T07:12:23.573Z,96894.36
2019-03-26T07:14:49.809Z,96899.98
2019-03-26T07:17:15.936Z,96911.64
2019-03-26T07:19:42.204Z,96913.95
2019-03-26T07:22:08.522Z,96917.77
2019-03-26T07:24:34.771Z,96921.60
2019-03-26T07:27:01.057Z,96923.21
2019-03-26T07:29:27.396Z,96922.17
2019-03-26T07:31:53.483Z,96922.17
2019-03-26T07:34:19.757Z,96925.82
2019-03-26T07:36:45.863Z,96922.36
2019-03-26T07:39:12.107Z,96917.89
2019-03-26T07:41:38.585Z,96917.89
2019-03-26T07:44:04.952Z,96917.89
2019-03-26T07:46:31.111Z,96926.45
2019-03-26T07:48:57.290Z,96925.81
2019-03-26T07:51:23.454Z,96929.64
2019-03-26T07:53:49.699Z,96928.32
2019-03-26T07:56:15.826Z,96929.80
2019-03-26T07:58:42.143Z,96937.09
2019-03-26T08:01:10.090Z,96930.02
2019-03-26T08:03:36.489Z,96930.56
2019-03-26T08:06:02.808Z,96929.33
2019-03-26T08:08:28.995Z,96933.34
2019-03-26T08:10:55.257Z,96930.92
2019-03-26T08:13:21.560Z,96929.80
2019-03-26T08:15:47.846Z,96933.91
2019-03-26T08:18:14.118Z,96934.30
2019-03-26T08:20:40.251Z,96943.63
2019-03-26T08:23:06.504Z,96941.76
2019-03-26T08:25:34.010Z,96945.87
2019-03-26T08:28:00.709Z,96948.37
2019-03-26T08:30:26.816Z,96945.48
2019-03-26T08:32:53.088Z,96947.34
2019-03-26T08:35:19.196Z,96953.14
2019-03-26T08:37:45.409Z,96951.89
2019-03-26T08:40:11.816Z,96947.04
2019-03-26T08:42:38.061Z,96950.87
2019-03-26T08:45:06.588Z,96947.63
2019-03-26T08:47:32.754Z,96947.16
2019-03-26T08:49:59.211Z,96946.59
2019-03-26T08:52:25.574Z,96947.34
2019-03-26T08:54:51.970Z,96942.97
2019-03-26T08:57:18.220Z,96940.06
2019-03-26T08:59:44.457Z,96945.27
2019-03-26T09:02:10.569Z,96942.66
2019-03-26T09:04:37.907Z,96933.58
2019-03-26T09:07:04.153Z,96943.56
2019-03-26T09:09:30.441Z,96943.17
2019-03-26T09:11:57.732Z,96939.41
2019-03-26T09:14:24.225Z,96934.08
2019-03-26T09:16:50.424Z,96940.33
2019-03-26T09:19:16.673Z,96939.18
2019-03-26T09:21:42.952Z,96935.87
2019-03-26T09:24:09.184Z,96923.59
2019-03-26T09:26:35.295Z,96928.37
2019-03-26T09:29:01.539Z,96930.14
2019-03-26T09:31:27.791Z,96926.41
2019-03-26T09:33:54.062Z,96927.66
2019-03-26T09:36:20.213Z,96936.36
2019-03-26T09:38:46.423Z,96927.70
2019-03-26T09:41:12.693Z,96930.81
2019-03-26T09:43:38.866Z,96934.08
2019-03-26T09:46:05.025Z,96930.45
2019-03-26T09:48:31.251Z,96942.95
2019-03-26T09:50:57.410Z,96942.55
2019-03-26T09:53:23.745Z,96942.06
2019-03-26T09:55:50.059Z,96937.02
2019-03-26T09:58:16.319Z,96935.81
2019-03-26T10:00:42.541Z,96925.64
2019-03-26T10:03:08.967Z,96933.23
2019-03-26T10:05:35.198Z,96935.29
2019-03-26T10:08:01.542Z,96931.92
2019-03-26T10:10:27.656Z,96930.25
2019-03-26T10:12:53.987Z,96937.09
2019-03-26T10:15:20.183Z,96941.27
2019-03-26T10:17:46.373Z,96942.19
2019-03-26T10:20:13.826Z,96937.84
2019-03-26T10:22:40.256Z,96931.34
2019-03-26T10:25:10.681Z,96935.67
2019-03-26T10:27:35.474Z,96926.97
2019-03-26T10:30:05.797Z,96932.35
2019-03-26T10:32:31.891Z,96922.84
2019-03-26T10:34:58.203Z,96935.77
2019-03-26T10:37:24.779Z,96947.59
2019-03-26T10:39:50.923Z,96945.30
2019-03-26T10:42:17.169Z,96937.70
2019-03-26T10:44:43.255Z,96934.92
2019-03-26T10:47:09.533Z,96927.41
2019-03-26T10:49:35.676Z,96922.33
2019-03-26T10:52:02.006Z,96913.92
2019-03-26T10:54:28.193Z,96910.96
2019-03-26T10:56:54.362Z,96915.73
2019-03-26T10:59:20.540Z,96912.88
2019-03-26T11:01:46.942Z,96915.16
2019-03-26T11:04:13.279Z,96920.66
2019-03-26T11:06:39.878Z,96922.89
2019-03-26T11:09:20.090Z,96925.89
2019-03-26T11:11:34.433Z,96912.95
2019-03-26T11:14:00.657Z,96917.77
2019-03-26T11:16:27.081Z,96909.32
2019-03-26T11:18:53.303Z,96917.75
2019-03-26T11:21:19.419Z,96913.66
2019-03-26T11:23:45.610Z,96919.05
2019-03-26T11:26:11.930Z,96916.16
2019-03-26T11:28:38.207Z,96904.36
2019-03-26T11:31:04.748Z,96909.66
2019-03-26T11:33:30.941Z,96922.02
2019-03-26T11:35:57.195Z,96915.39
2019-03-26T11:38:23.485Z,96918.66
2019-03-26T11:40:49.821Z,96909.46
2019-03-26T11:43:16.183Z,96893.88
2019-03-26T11:45:42.551Z,96920.08
2019-03-26T11:48:08.827Z,96913.09
2019-03-26T11:50:35.047Z,96917.83
2019-03-26T11:53:01.401Z,96917.17
2019-03-26T11:55:27.554Z,96911.45
2019-03-26T11:57:53.767Z,96915.73
2019-03-26T12:00:22.453Z,96918.73
2019-03-26T12:02:48.763Z,96914.55
2019-03-26T12:05:15.420Z,96911.06
2019-03-26T12:07:42.991Z,96902.16
2019-03-26T12:10:09.879Z,96902.41
2019-03-26T12:12:36.093Z,96904.95
2019-03-26T12:15:04.823Z,96908.00
2019-03-26T12:17:31.005Z,96901.95
2019-03-26T12:19:57.305Z,96895.95
2019-03-26T12:22:23.589Z,96897.25
2019-03-26T12:24:49.832Z,96893.93
2019-03-26T12:27:15.956Z,96892.22
2019-03-26T12:29:42.190Z,96898.83
2019-03-26T12:32:08.294Z,96884.63
2019-03-26T12:34:34.519Z,96887.33
2019-03-26T12:37:00.694Z,96885.33
2019-03-26T12:39:26.989Z,96882.08
2019-03-26T12:41:53.215Z,96876.53
2019-03-26T12:44:19.309Z,96884.40
2019-03-26T12:46:45.499Z,96883.94
2019-03-26T12:49:11.729Z,96875.83
2019-03-26T12:51:39.557Z,96880.11
2019-03-26T12:54:05.926Z,96870.39
2019-03-26T12:56:32.187Z,96872.77
2019-03-26T12:58:58.568Z,96865.93
2019-03-26T13:01:24.899Z,96864.60
2019-03-26T13:03:51.216Z,96873.63
2019-03-26T13:06:17.633Z,96872.14
2019-03-26T13:08:43.768Z,96870.42
2019-03-26T13:11:10.100Z,96863.48
2019-03-26T13:13:36.411Z,96864.94
2019-03-26T13:16:02.794Z,96862.25
2019-03-26T13:21:28.341Z,96849.50
2019-03-26T13:23:55.628Z,96849.84
2019-03-26T13:26:21.806Z,96851.31
2019-03-26T13:28:47.985Z,96856.85
2019-03-26T13:31:14.427Z,96862.04
2019-03-26T13:33:40.527Z,96862.48
2019-03-26T13:36:06.931Z,96870.98
2019-03-26T13:38:33.084Z,96867.99
2019-03-26T13:40:59.512Z,96855.95
2019-03-26T13:43:25.683Z,96856.08
2019-03-26T13:45:51.875Z,96856.88
2019-03-26T13:48:17.990Z,96868.10
2019-03-26T13:50:44.179Z,96869.16
2019-03-26T13:53:10.278Z,96860.02
2019-03-26T13:55:36.573Z,96863.51
2019-03-26T13:58:02.997Z,96858.50
2019-03-26T14:00:35.411Z,96856.67
2019-03-26T14:03:01.825Z,96859.56
2019-03-26T14:05:28.300Z,96857.52
2019-03-26T14:07:54.662Z,96846.58
2019-03-26T14:10:20.861Z,96847.83
2019-03-26T14:12:47.228Z,96845.42
2019-03-26T14:15:13.334Z,96851.95
2019-03-26T14:17:39.572Z,96846.02
2019-03-26T14:20:05.771Z,96846.33
2019-03-26T14:22:32.009Z,96852.58
2019-03-26T14:24:58.220Z,96844.14
2019-03-26T14:27:25.782Z,96840.20
2019-03-26T14:29:51.949Z,96838.05
2019-03-26T14:32:18.376Z,96838.77
2019-03-26T14:34:48.172Z,96840.80
2019-03-26T14:37:12.657Z,96839.48
2019-03-26T14:39:40.377Z,96843.78
2019-03-26T14:42:06.539Z,96839.81
2019-03-26T14:44:32.811Z,96842.33
2019-03-26T14:46:59.216Z,96845.16
2019-03-26T14:49:25.432Z,96840.48
2019-03-26T14:51:51.516Z,96836.16
2019-03-26T14:54:17.723Z,96841.13
2019-03-26T14:56:43.830Z,96849.70
2019-03-26T14:59:10.056Z,96843.12
2019-03-26T15:01:36.222Z,96839.52
2019-03-26T15:04:02.742Z,96843.78
2019-03-26T15:06:29.014Z,96846.98
2019-03-26T15:08:55.295Z,96847.44
2019-03-26T15:11:21.592Z,96845.38
2019-03-26T15:13:49.445Z,96847.77
2019-03-26T15:16:17.290Z,96858.13
2019-03-26T15:18:43.472Z,96850.02
2019-03-26T15:21:09.754Z,96848.59
2019-03-26T15:23:35.930Z,96844.39
2019-03-26T15:26:02.266Z,96848.82
2019-03-26T15:28:28.368Z,96849.86
2019-03-26T15:30:54.618Z,96851.28
2019-03-26T15:33:20.728Z,96846.14
2019-03-26T15:35:46.968Z,96861.18
2019-03-26T15:38:13.088Z,96855.17
2019-03-26T15:40:39.309Z,96861.84
2019-03-26T15:43:05.470Z,96865.39
2019-03-26T15:45:31.671Z,96865.14
2019-03-26T15:47:57.860Z,96859.05
2019-03-26T15:50:42.051Z,96857.61
2019-03-26T15:53:08.551Z,96846.05
2019-03-26T15:55:34.786Z,96847.41
2019-03-26T15:58:00.997Z,96846.43
2019-03-26T16:00:30.371Z,96843.31
2019-03-26T16:02:57.492Z,96831.78
2019-03-26T16:05:23.875Z,96847.25
2019-03-26T16:07:50.100Z,96847.00
2019-03-26T16:10:16.198Z,96851.40
2019-03-26T16:12:42.384Z,96851.84
2019-03-26T16:15:08.770Z,96849.08
2019-03-26T16:17:36.101Z,96850.25
2019-03-26T16:20:05.235Z,96852.48
2019-03-26T16:22:31.550Z,96842.60
2019-03-26T16:24:57.687Z,96855.19
2019-03-26T16:27:24.024Z,96859.34
2019-03-26T16:29:50.177Z,96866.78
2019-03-26T16:32:16.459Z,96862.60
2019-03-26T16:34:42.689Z,96845.10
2019-03-26T16:37:08.806Z,96855.55
2019-03-26T16:39:35.125Z,96849.11
2019-03-26T16:42:01.359Z,96854.81
2019-03-26T16:44:27.590Z,96859.31
2019-03-26T16:46:53.709Z,96860.63
2019-03-26T16:49:19.915Z,96863.45
2019-03-26T16:51:46.040Z,96854.77
2019-03-26T16:54:12.253Z,96849.25
2019-03-26T16:56:38.362Z,96840.16
2019-03-26T16:59:04.667Z,96847.45
2019-03-26T17:01:30.836Z,96843.34
2019-03-26T17:03:57.223Z,96846.56
2019-03-26T17:06:23.542Z,96853.11
2019-03-26T17:08:49.704Z,96852.83
2019-03-26T17:11:16.969Z,96851.94
2019-03-26T17:13:44.306Z,96848.33
2019-03-26T17:16:10.563Z,96852.46
2019-03-26T17:18:37.828Z,96855.47
2019-03-26T17:21:04.075Z,96856.03
2019-03-26T17:23:30.423Z,96850.16
2019-03-26T17:25:56.612Z,96850.11
2019-03-26T17:28:22.958Z,96857.22
2019-03-26T17:30:49.286Z,96853.81
2019-03-26T17:33:15.644Z,96860.75
2019-03-26T17:35:41.857Z,96857.88
2019-03-26T17:38:08.093Z,96858.08
2019-03-26T17:40:34.369Z,96862.72
2019-03-26T17:43:00.607Z,96859.84
2019-03-26T17:45:26.729Z,96854.46
2019-03-26T17:47:52.936Z,96852.50
2019-03-26T17:50:20.319Z,96854.27
2019-03-26T17:52:46.525Z,96859.72
2019-03-26T17:55:12.744Z,96864.39
2019-03-26T17:57:39.047Z,96863.08
2019-03-26T18:00:08.943Z,96872.34
2019-03-26T18:02:35.351Z,96876.58
2019-03-26T18:05:02.018Z,96885.94
2019-03-26T18:07:28.339Z,96879.59
2019-03-26T18:09:54.690Z,96878.59
2019-03-26T18:12:30.850Z,96894.09
2019-03-26T18:14:49.340Z,96889.82
2019-03-26T18:17:15.546Z,96894.63
2019-03-26T18:19:41.794Z,96897.81
2019-03-26T18:22:08.052Z,96895.65
2019-03-26T18:24:34.388Z,96905.95
2019-03-26T18:27:00.522Z,96910.08
2019-03-26T18:29:26.837Z,96907.45
2019-03-26T18:31:53.040Z,96906.09
2019-03-26T18:34:19.269Z,96906.84
2019-03-26T18:36:45.655Z,96901.90
2019-03-26T18:39:12.046Z,96916.58
2019-03-26T18:41:38.542Z,96913.34
2019-03-26T18:44:04.758Z,96918.77
2019-03-26T18:46:30.872Z,96923.60
2019-03-26T18:48:57.167Z,96922.88
2019-03-26T18:51:24.394Z,96925.10
2019-03-26T18:53:50.696Z,96926.31
2019-03-26T18:56:16.828Z,96922.97
2019-03-26T18:58:43.190Z,96926.05
2019-03-26T19:01:09.906Z,96923.53
2019-03-26T19:03:36.227Z,96923.98
2019-03-26T19:06:02.725Z,96930.33
2019-03-26T19:08:28.822Z,96928.92
2019-03-26T19:10:55.101Z,96929.21
2019-03-26T19:13:21.203Z,96920.25
2019-03-26T19:15:47.516Z,96928.39
2019-03-26T19:18:13.678Z,96926.60
2019-03-26T19:20:39.878Z,96934.17
2019-03-26T19:23:06.107Z,96935.94
2019-03-26T19:25:32.539Z,96927.55
2019-03-26T19:27:58.894Z,96933.14
2019-03-26T19:30:25.060Z,96926.60
2019-03-26T19:32:51.313Z,96939.67
2019-03-26T19:35:17.574Z,96927.64
2019-03-26T19:37:43.812Z,96931.02
2019-03-26T19:40:10.235Z,96939.96
2019-03-26T19:42:36.464Z,96940.45
2019-03-26T19:45:03.364Z,96937.73
2019-03-26T19:47:29.581Z,96944.37
2019-03-26T19:49:55.700Z,96937.34
2019-03-26T19:52:21.927Z,96941.00
2019-03-26T19:54:48.081Z,96941.55
2019-03-26T19:57:14.322Z,96945.96
2019-03-26T19:59:41.472Z,96941.76
2019-03-26T20:02:07.785Z,96944.20
2019-03-26T20:04:35.169Z,96944.84
2019-03-26T20:07:01.423Z,96953.14
2019-03-26T20:09:27.652Z,96948.00
2019-03-26T20:11:53.744Z,96946.42
2019-03-26T20:14:20.125Z,96939.89
2019-03-26T20:16:46.305Z,96945.58
2019-03-26T20:19:12.455Z,96950.99
2019-03-26T20:21:38.608Z,96953.15
2019-03-26T20:24:05.855Z,96953.33
2019-03-26T20:26:32.386Z,96956.79
2019-03-26T20:28:59.278Z,96958.00
2019-03-26T20:31:25.615Z,96967.15
2019-03-26T20:33:52.068Z,96982.83
2019-03-26T20:36:19.311Z,96990.39
2019-03-26T20:38:45.701Z,96994.59
2019-03-26T20:41:12.008Z,96988.06
2019-03-26T20:43:39.658Z,96993.84
2019-03-26T20:46:05.920Z,96998.25
2019-03-26T20:48:32.169Z,96989.73
2019-03-26T20:50:58.592Z,96996.45
2019-03-26T20:53:24.919Z,96997.22
2019-03-26T20:55:54.580Z,96999.92
2019-03-26T20:58:19.998Z,97001.86
2019-03-26T21:00:46.550Z,97004.11
2019-03-26T21:03:13.128Z,96998.52
2019-03-26T21:05:39.505Z,97004.47
2019-03-26T21:08:06.090Z,97007.67
2019-03-26T21:10:32.556Z,97025.95
2019-03-26T21:12:59.219Z,97023.71
2019-03-26T21:15:25.538Z,97023.44
2019-03-26T21:17:51.637Z,97017.00
2019-03-26T21:20:17.969Z,97031.16
2019-03-26T21:22:44.204Z,97025.47
2019-03-26T21:25:10.740Z,97022.45
2019-03-26T21:27:36.845Z,97014.71
2019-03-26T21:30:11.615Z,97019.75
2019-03-26T21:32:37.911Z,97022.00
2019-03-26T21:35:05.297Z,97023.13
2019-03-26T21:37:31.500Z,97028.22
2019-03-26T21:39:57.762Z,97031.41
2019-03-26T21:42:23.965Z,97036.81
2019-03-26T21:44:50.137Z,97038.66
2019-03-26T21:47:16.367Z,97043.26
2019-03-26T21:49:42.536Z,97038.89
2019-03-26T21:52:08.803Z,97047.94
2019-03-26T21:54:35.035Z,97042.72
2019-03-26T21:57:01.398Z,97037.95
2019-03-26T21:59:28.862Z,97040.84
2019-03-26T22:04:27.546Z,97051.41
2019-03-26T22:06:53.702Z,97047.01
2019-03-26T22:09:20.978Z,97050.11
2019-03-26T22:11:50.178Z,97039.75
2019-03-26T22:14:18.150Z,97048.89
2019-03-26T22:16:43.560Z,97039.84
2019-03-26T22:19:09.840Z,97037.68
2019-03-26T22:21:36.215Z,97042.53
2019-03-26T22:24:02.661Z,97048.58
2019-03-26T22:26:28.812Z,97041.96
2019-03-26T22:28:55.035Z,97051.50
2019-03-26T22:31:21.193Z,97056.64
2019-03-26T22:33:47.498Z,97057.09
2019-03-26T22:36:13.777Z,97055.24
2019-03-26T22:38:40.010Z,97051.14
2019-03-26T22:41:06.117Z,97056.28
2019-03-26T22:43:32.324Z,97059.63
2019-03-26T22:45:58.493Z,97060.20
2019-03-26T22:48:28.079Z,97059.26
2019-03-26T22:50:54.324Z,97062.81
2019-03-26T22:53:20.584Z,97058.98
2019-03-26T22:55:46.733Z,97061.02
2019-03-26T22:58:12.910Z,97053.08
2019-03-26T23:00:39.261Z,97062.22
2019-03-26T23:03:07.260Z,97052.14
2019-03-26T23:05:33.676Z,97058.85
2019-03-26T23:07:59.973Z,97056.06
2019-03-26T23:10:26.189Z,97069.80
2019-03-26T23:12:52.367Z,97066.06
2019-03-26T23:15:21.924Z,97069.35
2019-03-26T23:17:48.939Z,97066.84
2019-03-26T23:20:15.185Z,97072.82
2019-03-26T23:22:41.615Z,97066.02
2019-03-26T23:25:09.130Z,97069.75
2019-03-26T23:27:35.459Z,97072.73
2019-03-26T23:30:04.057Z,97068.17
2019-03-26T23:32:30.318Z,97071.34
2019-03-26T23:34:56.582Z,97074.25
2019-03-26T23:37:22.782Z,97066.69
2019-03-26T23:39:48.936Z,97065.11
2019-03-26T23:42:15.185Z,97059.39
2019-03-26T23:44:41.386Z,97069.94
2019-03-26T23:47:07.617Z,97076.87
2019-03-26T23:49:34.890Z,97072.86
2019-03-26T23:52:01.113Z,97079.58
2019-03-26T23:54:27.355Z,97080.70
2019-03-26T23:56:53.525Z,97077.90
2019-03-26T23:59:19.683Z,97081.73
